createdAt,value
2022-08-16T00:00:22.317Z,15.25
2022-08-16T00:05:48.641Z,12.30
2022-08-16T00:10:53.416Z,13.63
2022-08-16T00:15:56.001Z,11.35
2022-08-16T00:20:58.996Z,12.65
2022-08-16T00:31:24.107Z,13.38
2022-08-16T00:41:29.818Z,12.27
2022-08-16T00:57:59.558Z,12.95
2022-08-16T01:03:11.775Z,13.82
2022-08-16T01:08:35.043Z,14.60
2022-08-16T01:13:39.970Z,14.00
2022-08-16T01:18:45.790Z,13.95
2022-08-16T01:24:44.395Z,15.10
2022-08-16T01:29:57.947Z,15.75
2022-08-16T01:35:04.242Z,14.68
2022-08-16T01:40:07.837Z,14.45
2022-08-16T01:45:14.244Z,13.35
2022-08-16T01:50:42.033Z,15.32
2022-08-16T02:00:48.130Z,15.27
2022-08-16T02:05:52.714Z,15.63
2022-08-16T02:10:56.353Z,12.88
2022-08-16T02:15:59.033Z,15.38
2022-08-16T02:21:01.791Z,14.90
2022-08-16T02:26:07.431Z,13.50
2022-08-16T02:31:12.828Z,13.98
2022-08-16T02:36:47.687Z,14.27
2022-08-16T02:42:23.125Z,14.52
2022-08-16T02:48:00.264Z,15.35
2022-08-16T02:54:01.738Z,14.63
2022-08-16T02:59:24.310Z,15.88
2022-08-16T03:04:51.937Z,16.48
2022-08-16T03:09:56.410Z,19.65
2022-08-16T03:21:09.985Z,17.08
2022-08-16T03:26:35.591Z,16.02
2022-08-16T03:31:40.655Z,18.23
2022-08-16T03:49:36.402Z,16.98
2022-08-16T03:54:57.569Z,17.77
2022-08-16T04:00:35.566Z,17.85
2022-08-16T04:05:46.714Z,18.63
2022-08-16T04:17:59.364Z,18.77
2022-08-16T04:23:52.275Z,17.65
2022-08-16T04:29:17.257Z,16.23
2022-08-16T04:40:11.455Z,17.40
2022-08-16T04:53:04.344Z,22.02
2022-08-16T04:58:53.604Z,18.05
2022-08-16T05:04:01.806Z,18.98
2022-08-16T05:16:20.108Z,19.10
2022-08-16T05:39:30.537Z,17.55
2022-08-16T05:44:36.976Z,18.00
2022-08-16T05:49:50.814Z,19.35
2022-08-16T05:56:49.048Z,17.73
2022-08-16T06:09:43.365Z,19.50
2022-08-16T06:15:38.653Z,15.25
2022-08-16T06:27:39.658Z,15.05
2022-08-16T06:32:48.407Z,16.60
2022-08-16T06:38:38.503Z,15.13
2022-08-16T06:44:39.566Z,15.02
2022-08-16T06:50:21.970Z,14.52
2022-08-16T06:55:47.737Z,13.70
2022-08-16T07:01:02.691Z,12.95
2022-08-16T07:06:10.627Z,15.15
2022-08-16T07:23:39.060Z,13.38
2022-08-16T07:28:58.235Z,11.55
2022-08-16T07:34:00.625Z,11.35
2022-08-16T07:39:08.976Z,12.93
2022-08-16T07:44:16.187Z,10.98
2022-08-16T07:49:21.005Z,11.57
2022-08-16T07:54:32.127Z,10.05
2022-08-16T07:59:45.716Z,11.55
2022-08-16T08:04:51.019Z,10.50
2022-08-16T08:09:53.677Z,10.25
2022-08-16T08:14:56.641Z,8.98
2022-08-16T08:19:59.428Z,9.23
2022-08-16T08:25:05.365Z,8.75
2022-08-16T08:30:50.981Z,8.23
2022-08-16T08:35:39.751Z,8.90
2022-08-16T08:40:46.304Z,7.88
2022-08-16T08:45:53.764Z,8.57
2022-08-16T08:57:03.660Z,8.07
2022-08-16T09:02:15.063Z,8.82
2022-08-16T09:07:28.174Z,13.00
2022-08-16T09:12:36.151Z,11.13
2022-08-16T09:17:54.658Z,10.30
2022-08-16T09:23:03.490Z,7.75
2022-08-16T09:29:13.949Z,7.25
2022-08-16T09:33:45.561Z,6.20
2022-08-16T09:38:59.869Z,6.90
2022-08-16T09:45:10.846Z,6.32
2022-08-16T09:49:36.887Z,5.65
2022-08-16T09:54:44.544Z,6.03
2022-08-16T09:59:47.866Z,6.07
2022-08-16T10:05:01.505Z,5.75
2022-08-16T10:10:08.498Z,6.18
2022-08-16T10:15:21.053Z,6.10
2022-08-16T10:20:25.837Z,5.72
2022-08-16T10:27:00.649Z,6.47
2022-08-16T10:30:56.568Z,5.97
2022-08-16T10:36:05.892Z,6.30
2022-08-16T10:41:11.264Z,7.38
2022-08-16T10:46:39.959Z,6.40
2022-08-16T10:52:03.187Z,5.57
2022-08-16T10:57:04.893Z,8.57
2022-08-16T11:02:59.266Z,6.05
2022-08-16T11:07:45.508Z,5.78
2022-08-16T11:12:56.536Z,6.03
2022-08-16T11:23:23.688Z,5.53
2022-08-16T11:33:53.571Z,6.05
2022-08-16T11:39:00.831Z,5.75
2022-08-16T11:44:03.931Z,6.93
2022-08-16T11:49:12.722Z,5.72
2022-08-16T11:54:20.429Z,6.28
2022-08-16T11:59:29.420Z,5.00
2022-08-16T12:04:34.198Z,5.40
2022-08-16T12:09:43.222Z,5.20
2022-08-16T12:14:59.980Z,5.97
2022-08-16T12:20:07.629Z,6.10
2022-08-16T12:25:15.194Z,9.23
2022-08-16T12:30:27.114Z,6.07
2022-08-16T12:35:36.125Z,5.28
2022-08-16T12:40:42.578Z,5.47
2022-08-16T12:45:51.046Z,6.72
2022-08-16T12:50:54.817Z,7.45
2022-08-16T12:56:02.328Z,5.70
2022-08-16T13:01:10.308Z,9.02
2022-08-16T13:06:20.173Z,5.10
2022-08-16T13:11:35.522Z,5.03
2022-08-16T13:22:04.995Z,6.00
2022-08-16T13:27:07.453Z,4.95
2022-08-16T13:32:39.692Z,5.10
2022-08-16T13:37:36.389Z,5.35
2022-08-16T13:42:41.451Z,5.82
2022-08-16T13:47:45.894Z,4.80
2022-08-16T13:52:49.897Z,4.75
2022-08-16T13:58:34.669Z,4.78
2022-08-16T14:03:18.409Z,5.78
2022-08-16T14:08:25.188Z,5.10
2022-08-16T14:13:29.524Z,6.10
2022-08-16T14:18:32.022Z,4.65
2022-08-16T14:23:35.460Z,5.72
2022-08-16T14:28:37.996Z,6.60
2022-08-16T14:33:40.824Z,5.22
2022-08-16T14:38:43.203Z,5.53
2022-08-16T14:44:12.612Z,4.75
2022-08-16T14:49:17.268Z,4.50
2022-08-16T14:54:21.684Z,6.25
2022-08-16T14:59:25.226Z,4.43
2022-08-16T15:04:40.409Z,4.15
2022-08-16T15:10:01.224Z,5.07
2022-08-16T15:15:12.010Z,4.45
2022-08-16T15:20:17.938Z,4.70
2022-08-16T15:25:30.347Z,4.45
2022-08-16T15:30:57.176Z,4.88
2022-08-16T15:35:58.257Z,4.55
2022-08-16T15:41:01.290Z,4.57
2022-08-16T15:46:35.104Z,12.57
2022-08-16T15:51:45.549Z,5.35
2022-08-16T15:56:51.632Z,4.63
2022-08-16T16:01:56.543Z,4.78
2022-08-16T16:07:00.769Z,4.90
2022-08-16T16:12:16.387Z,4.65
2022-08-16T16:17:29.401Z,4.90
2022-08-16T16:22:31.926Z,5.03
2022-08-16T16:27:35.358Z,4.25
2022-08-16T16:32:39.083Z,3.92
2022-08-16T16:37:44.273Z,4.93
2022-08-16T16:42:46.674Z,4.97
2022-08-16T16:47:50.035Z,4.63
2022-08-16T16:52:57.290Z,4.18
2022-08-16T16:58:35.075Z,4.28
2022-08-16T17:03:38.619Z,4.68
2022-08-16T17:08:42.884Z,4.50
2022-08-16T17:13:46.281Z,4.70
2022-08-16T17:19:17.078Z,4.20
2022-08-16T17:24:17.425Z,4.57
2022-08-16T17:29:22.110Z,3.80
2022-08-16T17:34:34.563Z,4.32
2022-08-16T17:40:00.481Z,6.65
2022-08-16T17:45:11.713Z,10.32
2022-08-16T17:50:14.250Z,6.35
2022-08-16T17:55:24.180Z,6.22
2022-08-16T18:00:28.209Z,7.35
2022-08-16T18:05:40.989Z,5.63
2022-08-16T18:10:44.811Z,4.97
2022-08-16T18:15:51.258Z,6.88
2022-08-16T18:21:12.199Z,4.68
2022-08-16T18:26:14.723Z,6.05
2022-08-16T18:31:20.240Z,8.10
2022-08-16T18:36:23.228Z,8.52
2022-08-16T18:41:27.209Z,12.23
2022-08-16T18:46:29.810Z,16.10
2022-08-16T18:51:32.230Z,16.75
2022-08-16T18:56:55.138Z,18.80
2022-08-16T19:02:04.761Z,13.00
2022-08-16T19:07:10.143Z,10.95
2022-08-16T19:12:15.909Z,55.40
2022-08-16T19:17:18.599Z,83.88
2022-08-16T19:22:52.086Z,23.67
2022-08-16T19:27:51.709Z,17.25
2022-08-16T19:32:55.961Z,11.77
2022-08-16T19:37:58.679Z,12.23
2022-08-16T19:43:01.359Z,11.40
2022-08-16T19:48:09.906Z,11.80
2022-08-16T19:54:06.309Z,9.32
2022-08-16T19:59:40.131Z,12.90
2022-08-16T20:10:35.142Z,12.35
2022-08-16T20:15:40.911Z,19.25
2022-08-16T20:20:44.119Z,26.33
2022-08-16T20:25:49.866Z,20.48
2022-08-16T20:30:52.527Z,48.78
2022-08-16T20:35:54.933Z,13.73
2022-08-16T20:45:59.520Z,10.47
2022-08-16T20:51:01.976Z,11.35
2022-08-16T21:01:07.812Z,13.75
2022-08-16T21:06:10.235Z,16.70
2022-08-16T21:16:16.649Z,13.10
2022-08-16T21:21:18.969Z,14.30
2022-08-16T21:26:25.189Z,16.58
2022-08-16T21:31:28.632Z,16.17
2022-08-16T21:36:35.955Z,14.13
2022-08-16T21:41:38.987Z,14.45
2022-08-16T21:46:41.389Z,15.63
2022-08-16T21:51:43.919Z,13.68
2022-08-16T21:56:46.313Z,15.27
2022-08-16T22:01:48.857Z,16.02
2022-08-16T22:06:51.413Z,15.38
2022-08-16T22:11:53.925Z,15.50
2022-08-16T22:16:56.516Z,14.02
2022-08-16T22:27:02.436Z,14.38
2022-08-16T22:32:06.311Z,16.00
2022-08-16T22:37:08.841Z,13.20
2022-08-16T22:42:11.436Z,12.27
2022-08-16T22:47:14.806Z,13.82
2022-08-16T22:52:56.740Z,14.18
2022-08-16T22:57:40.406Z,15.90
2022-08-16T23:02:55.040Z,13.20
2022-08-16T23:07:57.702Z,15.95
2022-08-16T23:13:04.497Z,18.25
2022-08-16T23:18:07.558Z,16.65
2022-08-16T23:23:20.832Z,14.50
2022-08-16T23:28:27.654Z,14.45
2022-08-16T23:33:30.183Z,16.42
2022-08-16T23:38:37.778Z,14.27
2022-08-16T23:43:43.675Z,13.68
2022-08-16T23:49:56.186Z,15.40
2022-08-16T23:54:11.674Z,15.17
2022-08-16T23:59:14.636Z,14.20
